createdAt,value
2019-05-16T00:00:19.289Z,9.86
2019-05-16T00:02:48.119Z,9.81
2019-05-16T00:05:18.643Z,9.80
2019-05-16T00:07:48.992Z,9.78
2019-05-16T00:10:18.671Z,9.75
2019-05-16T00:12:48.684Z,9.75
2019-05-16T00:15:18.246Z,9.72
2019-05-16T00:17:48.796Z,9.70
2019-05-16T00:20:18.853Z,9.70
2019-05-16T00:22:48.380Z,9.63
2019-05-16T00:25:18.010Z,9.59
2019-05-16T00:27:47.898Z,9.61
2019-05-16T00:30:18.365Z,9.62
2019-05-16T00:32:48.170Z,9.61
2019-05-16T00:35:18.234Z,9.61
2019-05-16T00:37:48.389Z,9.60
2019-05-16T00:40:18.850Z,9.61
2019-05-16T00:42:49.181Z,9.64
2019-05-16T00:45:18.526Z,9.62
2019-05-16T00:47:47.990Z,9.63
2019-05-16T00:50:18.312Z,9.63
2019-05-16T00:52:48.663Z,9.58
2019-05-16T00:55:17.963Z,9.61
2019-05-16T00:57:48.161Z,9.61
2019-05-16T01:00:18.286Z,9.61
2019-05-16T01:02:48.563Z,9.61
2019-05-16T01:05:18.908Z,9.62
2019-05-16T01:07:48.057Z,9.63
2019-05-16T01:10:18.322Z,9.64
2019-05-16T01:12:48.101Z,9.69
2019-05-16T01:15:18.358Z,9.75
2019-05-16T01:17:48.420Z,9.74
2019-05-16T01:20:18.954Z,9.76
2019-05-16T01:22:48.917Z,9.79
2019-05-16T01:25:19.274Z,9.80
2019-05-16T01:27:47.720Z,9.81
2019-05-16T01:30:18.426Z,9.87
2019-05-16T01:32:48.964Z,9.87
2019-05-16T01:35:18.666Z,9.86
2019-05-16T01:37:48.585Z,9.89
2019-05-16T01:40:18.648Z,9.89
2019-05-16T01:42:48.787Z,9.90
2019-05-16T01:45:18.863Z,9.91
2019-05-16T01:47:48.208Z,9.87
2019-05-16T01:50:18.150Z,9.88
2019-05-16T01:52:48.739Z,9.91
2019-05-16T01:55:18.695Z,9.94
2019-05-16T01:57:48.065Z,9.98
2019-05-16T02:00:23.346Z,10.01
2019-05-16T02:02:48.741Z,10.02
2019-05-16T02:05:18.742Z,10.01
2019-05-16T02:07:48.010Z,10.04
2019-05-16T02:10:18.167Z,10.06
2019-05-16T02:12:48.818Z,10.07
2019-05-16T02:15:18.213Z,10.08
2019-05-16T02:17:48.453Z,10.13
2019-05-16T02:20:17.992Z,10.14
2019-05-16T02:22:48.225Z,10.16
2019-05-16T02:25:18.525Z,10.18
2019-05-16T02:27:48.921Z,10.18
2019-05-16T02:30:16.596Z,10.14
2019-05-16T02:32:44.949Z,10.14
2019-05-16T02:35:13.346Z,10.16
2019-05-16T02:37:42.584Z,10.16
2019-05-16T02:40:12.102Z,10.17
2019-05-16T02:42:41.907Z,10.17
2019-05-16T02:45:11.226Z,10.16
2019-05-16T02:47:42.456Z,10.17
2019-05-16T02:50:12.289Z,10.16
2019-05-16T02:52:41.381Z,10.17
2019-05-16T02:55:11.650Z,10.18
2019-05-16T02:57:41.603Z,10.17
2019-05-16T03:00:12.111Z,10.18
2019-05-16T03:02:41.978Z,10.13
2019-05-16T03:05:12.298Z,10.14
2019-05-16T03:07:46.930Z,10.17
2019-05-16T03:10:12.946Z,10.19
2019-05-16T03:12:41.996Z,10.20
2019-05-16T03:15:11.066Z,10.17
2019-05-16T03:17:40.280Z,10.17
2019-05-16T03:20:10.925Z,10.13
2019-05-16T03:22:40.915Z,10.15
2019-05-16T03:25:11.531Z,10.12
2019-05-16T03:27:41.298Z,10.13
2019-05-16T03:30:15.029Z,10.12
2019-05-16T03:32:45.285Z,10.13
2019-05-16T03:35:15.523Z,10.14
2019-05-16T03:37:54.005Z,10.14
2019-05-16T03:40:11.051Z,10.18
2019-05-16T03:42:41.592Z,10.17
2019-05-16T03:45:10.760Z,10.15
2019-05-16T03:47:42.802Z,10.14
2019-05-16T03:50:11.157Z,10.13
2019-05-16T03:52:43.280Z,10.14
2019-05-16T03:55:11.011Z,10.17
2019-05-16T03:57:41.455Z,10.18
2019-05-16T04:00:11.797Z,10.14
2019-05-16T04:02:41.971Z,10.13
2019-05-16T04:05:11.185Z,10.12
2019-05-16T04:07:41.468Z,10.15
2019-05-16T04:10:11.138Z,10.17
2019-05-16T04:12:41.857Z,10.19
2019-05-16T04:15:11.319Z,10.18
2019-05-16T04:17:41.262Z,10.20
2019-05-16T04:20:11.511Z,10.16
2019-05-16T04:22:40.918Z,10.18
2019-05-16T04:25:11.405Z,10.21
2019-05-16T04:27:41.563Z,10.19
2019-05-16T04:30:11.609Z,10.18
2019-05-16T04:32:41.948Z,10.23
2019-05-16T04:35:11.241Z,10.23
2019-05-16T04:37:42.183Z,10.25
2019-05-16T04:40:12.005Z,10.28
2019-05-16T04:42:41.680Z,10.34
2019-05-16T04:45:11.960Z,10.36
2019-05-16T04:47:41.339Z,10.38
2019-05-16T04:50:11.522Z,10.39
2019-05-16T04:52:41.862Z,10.43
2019-05-16T04:55:11.804Z,10.45
2019-05-16T04:57:42.147Z,10.48
2019-05-16T05:00:11.472Z,10.51
2019-05-16T05:02:41.857Z,10.53
2019-05-16T05:05:12.563Z,10.56
2019-05-16T05:07:40.794Z,10.58
2019-05-16T05:10:11.338Z,10.61
2019-05-16T05:12:40.797Z,10.65
2019-05-16T05:15:11.407Z,10.70
2019-05-16T05:17:41.293Z,10.75
2019-05-16T05:20:10.805Z,10.78
2019-05-16T05:22:39.887Z,10.86
2019-05-16T05:25:10.774Z,10.93
2019-05-16T05:27:41.256Z,10.95
2019-05-16T05:30:10.549Z,11.01
2019-05-16T05:32:41.331Z,11.06
2019-05-16T05:35:10.523Z,11.10
2019-05-16T05:37:40.983Z,11.10
2019-05-16T05:40:10.604Z,11.14
2019-05-16T05:42:39.969Z,11.15
2019-05-16T05:45:10.878Z,11.17
2019-05-16T05:47:40.232Z,11.17
2019-05-16T05:50:11.226Z,11.19
2019-05-16T05:52:41.205Z,11.21
2019-05-16T05:55:10.589Z,11.23
2019-05-16T05:57:40.416Z,11.26
2019-05-16T06:00:09.921Z,11.33
2019-05-16T06:02:40.263Z,11.36
2019-05-16T06:05:10.588Z,11.42
2019-05-16T06:07:40.449Z,11.47
2019-05-16T06:10:10.577Z,11.44
2019-05-16T06:12:40.821Z,11.49
2019-05-16T06:15:12.654Z,11.51
2019-05-16T06:17:40.160Z,11.52
2019-05-16T06:20:14.006Z,11.60
2019-05-16T06:22:40.322Z,11.64
2019-05-16T06:25:13.181Z,11.78
2019-05-16T06:27:40.630Z,11.81
2019-05-16T06:30:11.500Z,11.82
2019-05-16T06:32:39.547Z,11.80
2019-05-16T06:35:09.819Z,11.80
2019-05-16T06:37:40.325Z,11.81
2019-05-16T06:40:08.093Z,11.86
2019-05-16T06:42:36.395Z,11.84
2019-05-16T06:45:06.199Z,11.89
2019-05-16T06:47:34.478Z,11.95
2019-05-16T06:50:02.790Z,11.96
2019-05-16T06:52:31.057Z,12.09
2019-05-16T06:55:00.820Z,12.15
2019-05-16T06:57:30.226Z,12.24
2019-05-16T07:00:00.627Z,12.22
2019-05-16T07:02:33.610Z,12.29
2019-05-16T07:05:01.063Z,12.39
2019-05-16T07:07:30.796Z,12.46
2019-05-16T07:10:04.165Z,12.48
2019-05-16T07:12:31.484Z,12.55
2019-05-16T07:15:01.440Z,12.55
2019-05-16T07:17:30.637Z,12.54
2019-05-16T07:20:00.728Z,12.68
2019-05-16T07:22:31.246Z,12.89
2019-05-16T07:24:59.950Z,13.11
2019-05-16T07:27:30.689Z,13.23
2019-05-16T07:30:01.159Z,13.28
2019-05-16T07:32:30.234Z,13.44
2019-05-16T07:35:00.345Z,13.60
2019-05-16T07:37:31.434Z,13.66
2019-05-16T07:40:08.487Z,13.63
2019-05-16T07:42:30.759Z,13.64
2019-05-16T07:45:00.677Z,13.62
2019-05-16T07:47:30.978Z,13.58
2019-05-16T07:49:59.607Z,13.51
2019-05-16T07:52:35.341Z,13.58
2019-05-16T07:55:00.248Z,13.61
2019-05-16T07:57:30.504Z,13.72
2019-05-16T08:00:00.165Z,13.74
2019-05-16T08:02:31.092Z,13.87
2019-05-16T08:05:00.652Z,14.16
2019-05-16T08:07:33.186Z,14.46
2019-05-16T08:09:59.885Z,14.68
2019-05-16T08:12:32.782Z,14.83
2019-05-16T08:15:00.715Z,14.82
2019-05-16T08:17:28.450Z,14.91
2019-05-16T08:19:59.855Z,14.90
2019-05-16T08:22:27.349Z,15.00
2019-05-16T08:24:55.623Z,15.26
2019-05-16T08:27:24.094Z,15.49
2019-05-16T08:29:52.490Z,15.71
2019-05-16T08:32:22.986Z,15.76
2019-05-16T08:34:51.511Z,15.68
2019-05-16T08:37:33.966Z,15.48
2019-05-16T08:39:50.990Z,15.33
2019-05-16T08:42:20.893Z,15.28
2019-05-16T08:44:51.734Z,15.24
2019-05-16T08:47:21.333Z,15.21
2019-05-16T08:49:52.383Z,15.14
2019-05-16T08:52:22.338Z,15.18
2019-05-16T08:54:51.197Z,14.99
2019-05-16T08:59:53.217Z,15.07
2019-05-16T09:02:22.228Z,15.15
2019-05-16T09:04:53.724Z,15.37
2019-05-16T09:07:22.807Z,15.49
2019-05-16T09:09:52.192Z,15.76
2019-05-16T09:10:39.232Z,15.02
2019-05-16T09:12:20.710Z,15.96
2019-05-16T09:14:48.998Z,16.15
2019-05-16T09:17:18.127Z,16.16
2019-05-16T09:19:47.241Z,15.94
2019-05-16T09:22:17.896Z,16.11
2019-05-16T09:24:48.177Z,16.12
2019-05-16T09:27:17.926Z,16.32
2019-05-16T09:29:47.164Z,16.29
2019-05-16T09:32:17.863Z,16.08
2019-05-16T09:34:47.848Z,16.10
2019-05-16T09:37:17.976Z,16.06
2019-05-16T09:39:48.082Z,16.22
2019-05-16T09:42:17.164Z,16.54
2019-05-16T09:44:47.652Z,16.95
2019-05-16T09:47:17.562Z,17.32
2019-05-16T09:49:47.504Z,17.59
2019-05-16T09:52:16.573Z,17.61
2019-05-16T09:54:46.875Z,17.66
2019-05-16T09:57:17.285Z,17.84
2019-05-16T09:59:46.504Z,17.87
2019-05-16T10:02:17.605Z,17.73
2019-05-16T10:04:47.351Z,17.76
2019-05-16T10:07:17.945Z,17.74
2019-05-16T10:09:50.017Z,17.76
2019-05-16T10:12:18.719Z,17.73
2019-05-16T10:14:47.013Z,17.49
2019-05-16T10:17:17.701Z,17.49
2019-05-16T10:19:47.521Z,17.53
2019-05-16T10:22:17.131Z,17.58
2019-05-16T10:24:46.960Z,17.65
2019-05-16T10:27:17.156Z,17.75
2019-05-16T10:29:48.190Z,17.80
2019-05-16T10:32:16.730Z,17.82
2019-05-16T10:34:46.720Z,17.79
2019-05-16T10:37:17.678Z,17.68
2019-05-16T10:39:46.908Z,17.49
2019-05-16T10:42:28.268Z,17.55
2019-05-16T10:44:48.307Z,17.45
2019-05-16T10:47:17.317Z,17.28
2019-05-16T10:49:47.560Z,17.18
2019-05-16T10:52:16.708Z,16.87
2019-05-16T10:54:55.418Z,16.83
2019-05-16T10:57:16.426Z,16.88
2019-05-16T11:00:05.148Z,16.91
2019-05-16T11:02:16.715Z,16.93
2019-05-16T11:04:57.297Z,16.96
2019-05-16T11:07:14.984Z,16.94
2019-05-16T11:09:54.763Z,16.84
2019-05-16T11:12:13.481Z,16.75
2019-05-16T11:14:41.865Z,16.69
2019-05-16T11:17:12.826Z,16.59
2019-05-16T11:19:40.392Z,16.48
2019-05-16T11:22:08.680Z,16.37
2019-05-16T11:24:37.767Z,16.27
2019-05-16T11:27:07.487Z,16.11
2019-05-16T11:29:36.627Z,16.31
2019-05-16T11:32:06.993Z,16.31
2019-05-16T11:34:37.260Z,16.30
2019-05-16T11:37:06.858Z,16.36
2019-05-16T11:39:37.101Z,16.49
2019-05-16T11:42:08.095Z,16.56
2019-05-16T11:44:38.037Z,16.53
2019-05-16T11:47:08.281Z,16.59
2019-05-16T11:49:36.909Z,16.63
2019-05-16T11:52:07.371Z,16.63
2019-05-16T11:54:37.439Z,16.57
2019-05-16T11:57:06.963Z,16.64
2019-05-16T11:59:37.397Z,16.67
2019-05-16T12:02:05.697Z,16.71
2019-05-16T12:04:34.031Z,16.56
2019-05-16T12:07:02.406Z,16.57
2019-05-16T12:09:33.593Z,16.72
2019-05-16T12:12:04.206Z,16.81
2019-05-16T12:14:30.858Z,16.68
2019-05-16T12:16:59.145Z,16.76
2019-05-16T12:19:34.188Z,16.85
2019-05-16T12:21:57.740Z,16.82
2019-05-16T12:24:33.082Z,16.72
2019-05-16T12:26:56.931Z,16.72
2019-05-16T12:29:28.171Z,16.70
2019-05-16T12:32:02.365Z,16.59
2019-05-16T12:34:26.231Z,16.48
2019-05-16T12:36:56.595Z,16.49
2019-05-16T12:39:26.868Z,16.48
2019-05-16T12:41:59.326Z,16.28
2019-05-16T12:44:26.898Z,16.16
2019-05-16T12:46:56.958Z,16.03
2019-05-16T12:49:25.323Z,15.98
2019-05-16T12:51:53.741Z,16.16
2019-05-16T12:54:22.097Z,16.27
2019-05-16T12:56:50.384Z,16.38
2019-05-16T12:59:21.600Z,16.31
2019-05-16T13:01:48.785Z,16.15
2019-05-16T13:04:19.059Z,16.10
2019-05-16T13:06:47.315Z,16.12
2019-05-16T13:09:18.285Z,16.09
2019-05-16T13:11:47.214Z,16.01
2019-05-16T13:14:16.959Z,15.81
2019-05-16T13:16:47.362Z,15.66
2019-05-16T13:19:18.158Z,15.51
2019-05-16T13:21:46.923Z,15.29
2019-05-16T13:24:18.301Z,15.21
2019-05-16T13:26:47.597Z,15.13
2019-05-16T13:29:17.842Z,15.13
2019-05-16T13:31:47.876Z,15.13
2019-05-16T13:34:17.830Z,15.09
2019-05-16T13:36:47.412Z,15.25
2019-05-16T13:39:16.983Z,15.36
2019-05-16T13:41:45.683Z,15.49
2019-05-16T13:44:19.046Z,15.63
2019-05-16T13:46:46.629Z,15.63
2019-05-16T13:49:14.181Z,15.58
2019-05-16T13:51:42.485Z,15.68
2019-05-16T13:54:10.773Z,15.63
2019-05-16T13:56:39.058Z,15.58
2019-05-16T13:59:07.857Z,15.59
2019-05-16T14:01:36.845Z,15.56
2019-05-16T14:04:09.597Z,15.54
2019-05-16T14:06:36.852Z,15.63
2019-05-16T14:09:07.506Z,15.45
2019-05-16T14:11:36.690Z,15.49
2019-05-16T14:14:05.747Z,15.18
2019-05-16T14:16:34.128Z,15.17
2019-05-16T14:19:02.602Z,15.10
2019-05-16T14:21:30.898Z,15.07
2019-05-16T14:23:59.523Z,14.87
2019-05-16T14:26:27.800Z,14.60
2019-05-16T14:28:57.618Z,14.55
2019-05-16T14:31:26.268Z,14.52
2019-05-16T14:33:56.667Z,14.33
2019-05-16T14:36:27.922Z,14.28
2019-05-16T14:38:57.345Z,14.16
2019-05-16T14:41:27.717Z,14.16
2019-05-16T14:43:55.500Z,14.21
2019-05-16T14:46:23.806Z,14.33
2019-05-16T14:48:52.699Z,14.28
2019-05-16T14:51:21.077Z,14.37
2019-05-16T14:53:49.402Z,14.41
2019-05-16T14:56:17.676Z,14.51
2019-05-16T14:58:48.468Z,14.54
2019-05-16T15:01:17.587Z,14.42
2019-05-16T15:03:47.334Z,14.34
2019-05-16T15:06:18.236Z,14.21
2019-05-16T15:08:47.421Z,14.15
2019-05-16T15:11:17.987Z,14.15
2019-05-16T15:13:46.061Z,14.24
2019-05-16T15:16:16.725Z,14.29
2019-05-16T15:18:47.208Z,14.27
2019-05-16T15:21:17.391Z,14.28
2019-05-16T15:23:44.598Z,14.35
2019-05-16T15:26:12.881Z,14.32
2019-05-16T15:28:41.219Z,14.33
2019-05-16T15:31:09.524Z,14.32
2019-05-16T15:33:37.897Z,14.22
2019-05-16T15:36:08.672Z,14.22
2019-05-16T15:38:36.618Z,14.13
2019-05-16T15:41:07.883Z,14.10
2019-05-16T15:43:36.969Z,14.15
2019-05-16T15:46:08.076Z,14.09
2019-05-16T15:48:37.040Z,14.06
2019-05-16T15:51:08.612Z,13.94
2019-05-16T15:53:36.248Z,13.89
2019-05-16T15:56:09.619Z,13.82
2019-05-16T15:58:37.168Z,13.69
2019-05-16T16:01:07.090Z,13.59
2019-05-16T16:03:37.957Z,13.56
2019-05-16T16:06:06.821Z,13.51
2019-05-16T16:08:37.440Z,13.50
2019-05-16T16:11:07.340Z,13.49
2019-05-16T16:13:37.400Z,13.50
2019-05-16T16:16:10.140Z,13.40
2019-05-16T16:18:37.649Z,13.41
2019-05-16T16:21:07.466Z,13.45
2019-05-16T16:23:37.346Z,13.52
2019-05-16T16:26:07.297Z,13.63
2019-05-16T16:28:38.193Z,13.74
2019-05-16T16:31:07.563Z,13.82
2019-05-16T16:33:37.430Z,13.85
2019-05-16T16:36:07.846Z,13.77
2019-05-16T16:38:37.189Z,13.74
2019-05-16T16:41:08.148Z,13.78
2019-05-16T16:43:37.317Z,13.68
2019-05-16T16:46:13.008Z,13.54
2019-05-16T16:48:36.347Z,13.68
2019-05-16T16:51:06.543Z,13.74
2019-05-16T16:53:37.490Z,13.79
2019-05-16T16:56:07.430Z,13.86
2019-05-16T16:58:37.304Z,13.84
2019-05-16T17:01:07.223Z,13.83
2019-05-16T17:03:36.348Z,13.83
2019-05-16T17:06:04.964Z,13.86
2019-05-16T17:08:33.389Z,13.87
2019-05-16T17:11:01.844Z,13.86
2019-05-16T17:13:30.168Z,13.90
2019-05-16T17:15:58.595Z,13.72
2019-05-16T17:18:27.639Z,13.71
2019-05-16T17:20:57.014Z,13.67
2019-05-16T17:23:26.453Z,13.64
2019-05-16T17:25:56.711Z,13.55
2019-05-16T17:28:25.062Z,13.56
2019-05-16T17:30:53.467Z,13.61
2019-05-16T17:33:21.758Z,13.56
2019-05-16T17:35:50.041Z,13.60
2019-05-16T17:38:18.343Z,13.61
2019-05-16T17:40:46.984Z,13.57
2019-05-16T17:43:16.442Z,13.55
2019-05-16T17:45:47.060Z,13.57
2019-05-16T17:48:17.517Z,13.49
2019-05-16T17:50:46.655Z,13.52
2019-05-16T17:53:17.263Z,13.54
2019-05-16T17:55:47.221Z,13.58
2019-05-16T17:58:16.411Z,13.54
2019-05-16T18:00:47.216Z,13.53
2019-05-16T18:03:17.339Z,13.51
2019-05-16T18:05:47.488Z,13.52
2019-05-16T18:08:15.991Z,13.52
2019-05-16T18:10:46.958Z,13.56
2019-05-16T18:13:14.717Z,13.57
2019-05-16T18:15:43.008Z,13.58
2019-05-16T18:18:11.309Z,13.60
2019-05-16T18:20:39.667Z,13.60
2019-05-16T18:23:08.069Z,13.61
2019-05-16T18:25:36.679Z,13.61
2019-05-16T18:28:07.724Z,13.56
2019-05-16T18:30:36.633Z,13.54
2019-05-16T18:33:07.323Z,13.53
2019-05-16T18:35:37.120Z,13.54
2019-05-16T18:38:07.235Z,13.53
2019-05-16T18:40:36.724Z,13.51
2019-05-16T18:43:07.847Z,13.50
2019-05-16T18:45:36.637Z,13.50
2019-05-16T18:48:07.477Z,13.54
2019-05-16T18:50:37.895Z,13.56
2019-05-16T18:53:07.363Z,13.54
2019-05-16T18:55:37.176Z,13.52
2019-05-16T18:58:08.256Z,13.54
2019-05-16T19:00:37.589Z,13.55
2019-05-16T19:03:07.785Z,13.56
2019-05-16T19:05:37.255Z,13.55
2019-05-16T19:08:07.250Z,13.52
2019-05-16T19:10:36.705Z,13.54
2019-05-16T19:13:08.128Z,13.58
2019-05-16T19:15:37.546Z,13.60
2019-05-16T19:18:06.654Z,13.60
2019-05-16T19:20:37.436Z,13.64
2019-05-16T19:23:07.541Z,13.65
2019-05-16T19:25:35.328Z,13.64
2019-05-16T19:28:03.697Z,13.62
2019-05-16T19:30:32.046Z,13.61
2019-05-16T19:33:00.333Z,13.63
2019-05-16T19:35:28.847Z,13.62
2019-05-16T19:37:57.223Z,13.61
2019-05-16T19:40:25.593Z,13.58
2019-05-16T19:42:56.515Z,13.53
2019-05-16T19:45:26.442Z,13.54
2019-05-16T19:47:54.613Z,13.53
2019-05-16T19:50:22.899Z,13.54
2019-05-16T19:52:51.579Z,13.54
2019-05-16T19:55:19.865Z,13.46
2019-05-16T19:57:48.282Z,13.45
2019-05-16T20:00:17.330Z,13.46
2019-05-16T20:02:47.348Z,13.46
2019-05-16T20:05:17.070Z,13.49
2019-05-16T20:07:45.437Z,13.47
2019-05-16T20:10:13.814Z,13.44
2019-05-16T20:12:42.186Z,13.47
2019-05-16T20:15:11.899Z,13.43
2019-05-16T20:17:52.066Z,13.39
2019-05-16T20:20:10.379Z,13.35
2019-05-16T20:22:38.786Z,13.30
2019-05-16T20:25:07.302Z,13.29
2019-05-16T20:27:36.752Z,13.23
2019-05-16T20:30:07.146Z,13.19
2019-05-16T20:32:37.161Z,13.19
2019-05-16T20:35:08.848Z,13.24
2019-05-16T20:37:36.894Z,13.24
2019-05-16T20:40:08.425Z,13.22
2019-05-16T20:42:36.712Z,13.19
2019-05-16T20:45:08.023Z,13.19
2019-05-16T20:47:36.597Z,13.14
2019-05-16T20:50:08.135Z,13.19
2019-05-16T20:52:37.878Z,13.21
2019-05-16T20:55:07.919Z,13.15
2019-05-16T20:57:37.785Z,13.11
2019-05-16T21:00:09.047Z,13.12
2019-05-16T21:02:37.951Z,13.10
2019-05-16T21:05:06.773Z,13.12
2019-05-16T21:07:37.166Z,13.08
2019-05-16T21:10:07.955Z,13.07
2019-05-16T21:12:39.870Z,13.12
2019-05-16T21:15:07.195Z,13.08
2019-05-16T21:17:35.903Z,13.01
2019-05-16T21:20:07.232Z,12.94
2019-05-16T21:22:37.114Z,12.86
2019-05-16T21:25:05.813Z,12.86
2019-05-16T21:27:37.070Z,12.85
2019-05-16T21:30:08.603Z,12.82
2019-05-16T21:32:37.067Z,12.79
2019-05-16T21:35:08.076Z,12.80
2019-05-16T21:37:37.480Z,12.78
2019-05-16T21:40:07.999Z,12.82
2019-05-16T21:42:36.572Z,12.76
2019-05-16T21:45:06.785Z,12.79
2019-05-16T21:47:36.947Z,12.77
2019-05-16T21:50:07.668Z,12.72
2019-05-16T21:52:36.484Z,12.63
2019-05-16T21:55:07.099Z,12.59
2019-05-16T21:57:37.691Z,12.54
2019-05-16T22:00:12.721Z,12.56
2019-05-16T22:02:41.173Z,12.57
2019-05-16T22:05:09.542Z,12.58
2019-05-16T22:07:37.830Z,12.56
2019-05-16T22:10:07.195Z,12.58
2019-05-16T22:12:38.211Z,12.46
2019-05-16T22:15:06.673Z,12.41
2019-05-16T22:17:36.679Z,12.35
2019-05-16T22:20:07.184Z,12.41
2019-05-16T22:22:37.930Z,12.37
2019-05-16T22:25:07.714Z,12.38
2019-05-16T22:27:35.605Z,12.35
2019-05-16T22:30:09.844Z,12.33
2019-05-16T22:32:38.178Z,12.35
2019-05-16T22:35:07.890Z,12.34
2019-05-16T22:37:49.416Z,12.34
2019-05-16T22:40:06.818Z,12.32
2019-05-16T22:42:37.420Z,12.29
2019-05-16T22:45:09.616Z,12.32
2019-05-16T22:47:37.991Z,12.33
2019-05-16T22:50:08.435Z,12.25
2019-05-16T22:52:36.947Z,12.26
2019-05-16T22:55:07.415Z,12.29
2019-05-16T22:57:36.070Z,12.34
2019-05-16T23:00:08.957Z,12.39
2019-05-16T23:02:37.244Z,12.25
2019-05-16T23:05:07.380Z,12.26
2019-05-16T23:07:36.676Z,12.25
2019-05-16T23:10:07.191Z,12.16
2019-05-16T23:12:37.127Z,12.14
2019-05-16T23:15:06.699Z,12.08
2019-05-16T23:17:37.559Z,12.11
2019-05-16T23:20:06.487Z,12.08
2019-05-16T23:22:36.711Z,12.06
2019-05-16T23:25:06.650Z,12.04
2019-05-16T23:27:36.841Z,12.01
2019-05-16T23:30:07.777Z,12.00
2019-05-16T23:32:36.567Z,11.95
2019-05-16T23:35:07.007Z,11.91
2019-05-16T23:37:37.021Z,11.94
2019-05-16T23:40:08.528Z,11.95
2019-05-16T23:42:37.243Z,11.93
2019-05-16T23:45:08.638Z,11.96
2019-05-16T23:47:37.207Z,11.93
2019-05-16T23:50:07.540Z,11.94
2019-05-16T23:52:36.766Z,11.95
2019-05-16T23:55:08.341Z,11.91
2019-05-16T23:57:37.533Z,11.86
